Markus Ainsalu

Olheiro-Chefe - Narva Trans
3 Dez 2028
Domingo
Processo

Personalidade

Adaptabilidade (6) Ambição (3) Controvérsia (18) Lealdade (2) Pressão (4) Profissionalismo (15) Espírito Esportivo (18) Temperamento (2)

Perfil

Estilo de Treinamento Democrático
Licença Nacional B
Determinação 8
Gestão de Pessoas 2
Motivação 8
Disciplina 4
Satisfação no Trabalho
100%
Fadiga
0%
Função Olheiro-Chefe
Salário 8.8K p/s
Contrato 14.03.2029

Desempenho

Comportamento Bom
Eficácia do Treinamento
35%
Desenvolvimento do Jogador
20%
Prevenção de Lesões
15%
Implementação Tática
35%

Eventos Recentes

Participou de uma reunião de recrutamento agora
Recomendou um alvo de transferência agora
Participou de uma reunião de recrutamento agora
Participou de uma reunião de recrutamento 7d atrás
Recomendou um alvo de transferência 7d atrás
Participou de uma reunião de recrutamento 7d atrás
Participou de uma reunião de recrutamento 7d atrás
Participou de uma reunião de recrutamento 7d atrás

Monitorando agora

147
Jogador Clube Status Habilidade Confiança Observado Última observação Último voto
Victor Hugo Paide Ativo 81 / 74 58% 1 19.06.2028 Aprovar
Nikolay Tolstopyatov Neftekhimik Ativo 93 / 97 40% 1 31.05.2028 -
Darko Todorović Fakel Ativo 112 / 107 40% 3 30.05.2028 Observar
Ethan Erhahon Cheltenham Town Ativo 109 / 127 40% 2 30.05.2028 -
Pol Valentín Cambridge United Ativo 137 / 112 40% 4 26.05.2028 -
Steven Sessegnon Wigan Athletic Ativo 97 / 98 40% 1 26.05.2028 -
Ruslan Baitukov Chelyabinsk Ativo 94 / 96 40% 2 25.05.2028 -
Marcelo Alves SKA Khabarovsk Ativo 112 / 121 40% 5 24.05.2028 Observar
Ellis Iandolo Colchester United Ativo 93 / 109 40% 1 20.05.2028 -
Reece Oxford Shrewsbury Town Ativo 95 / 96 40% 2 18.05.2028 -
Idar Shumakhov Dinamo Makhachkala Ativo 96 / 92 40% 1 18.05.2028 -
Zane Albarus Shrewsbury Town Ativo 108 / 83 40% 1 15.05.2028 -
Greg Docherty Barrow AFC Ativo 131 / 99 40% 3 12.05.2028 -
Kirill Bozhenov Sokol Ativo 111 / 106 40% 3 09.05.2028 -
David Kokoev Yenisey Ativo 99 / 113 40% 1 09.05.2028 -
Pavel Maslov Chaika Ativo 117 / 119 40% 3 08.05.2028 Observar
Artem Bykov Sokol Ativo 93 / 89 40% 2 06.05.2028 -
Nader Mohammadi Spartak Kostroma Ativo 104 / 105 40% 2 01.05.2028 -
Stanislav Magkeev Fakel Ativo 107 / 123 40% 2 28.04.2028 -
Ryan Johnson AFC Wimbledon Ativo 129 / 100 40% 1 25.04.2028 -
Artur Cherny Shinnik Ativo 108 / 87 40% 2 24.04.2028 -
Bojan Roganović Torpedo Moscow Ativo 120 / 98 40% 2 24.04.2028 -
Timofey Kalistratov KAMAZ Ativo 104 / 110 40% 2 23.04.2028 -
Oleg Krasilnichenko Volga Ativo 101 / 100 40% 2 20.04.2028 -
Bojan Dimoski Akron Ativo 102 / 120 40% 1 20.04.2028 -
Ilja Agapov Ufa Ativo 126 / 125 40% 2 15.04.2028 -
Marko Bugarin Spartak Kostroma Ativo 95 / 95 40% 3 13.04.2028 -
Saminu Abdullahi KAMAZ Ativo 108 / 102 40% 2 11.04.2028 -
Nikita Ponomarev Salyut Ativo 80 / 77 40% 1 06.04.2028 -
Ilnur Badrtdinov Metallurg Ativo 94 / 91 40% 1 04.04.2028 -
Garrik Levin Chelyabinsk Ativo 104 / 103 40% 2 01.04.2028 -
Oleksandr Masalov Dinamo St Petersburg Ativo 88 / 98 40% 2 31.03.2028 -
Konstantin Kovalev Volga Ativo 108 / 98 40% 1 31.03.2028 -
Giorgi Kantaria Neftekhimik Ativo 96 / 110 40% 1 23.03.2028 -
Denis Zhilmostnykh Spartak Kostroma Ativo 90 / 103 40% 1 22.03.2028 -
Artem Isik Dinamo Vologda Ativo 93 / 96 40% 1 21.03.2028 -
Alexandr Korotkov Rotor Ativo 108 / 113 40% 2 20.03.2028 -
Makar Vysochenko Spartak Moscow Ativo 96 / 103 40% 1 20.03.2028 -
Igor Konovalov Chernomorets Ativo 93 / 95 40% 1 14.03.2028 -
Denis Fomin SKA Khabarovsk Ativo 96 / 83 40% 1 13.03.2028 -
Valery Chupin Saturn Ativo 91 / 86 40% 1 13.03.2028 -
Danila Gaivoronskiy Zenit Ativo 96 / 84 40% 1 10.03.2028 -
Danil Kazantsev Zenit Penza Ativo 84 / 74 40% 1 07.03.2028 -
Lucas Monzón Alvarado Ativo 109 / 99 40% 1 20.07.2027 -
Tiago Casasola Union Brescia Ativo 130 / 122 40% 1 20.07.2027 -
Stanislav Tsõmbaljuk Nomme Kalju Ativo 72 / 63 55% 1 12.07.2027 -
Pavel Marin Tammeka Ativo 96 / 96 30% 1 / 1m 16.06.2027 -
Kirill Cheburakov Rostov Ativo 83 / 89 40% 4 13.05.2027 -
Ilja Gruznov Khimik Ativo 87 / 80 40% 4 13.05.2027 -
Ilja Safronov Rotor Ativo 102 / 104 40% 4 11.05.2027 -
Alexandr Shlenkin Dinamo Bryansk Ativo 77 / 71 40% 2 11.05.2027 -
Yeangel Montero Naxxar Lions Ativo 112 / 110 40% 1 10.05.2027 -
Lamine Diakité Djoliba Ativo 101 / 85 40% 1 06.05.2027 -
Alejandro Rincon Llaneros Ativo 90 / 116 40% 1 06.05.2027 -
Soslan Lysenko Spartak Nalchik Ativo 80 / 66 40% 1 05.05.2027 -
Said Aliev Rotor Ativo 108 / 96 40% 5 03.05.2027 -
Alexandr Olenev Nart Ativo 91 / 89 40% 3 02.05.2027 -
Vyacheslav Purak Rubin Yalta Ativo 71 / 85 40% 2 30.04.2027 -
Daniil Konoplev Dinamo Bryansk Ativo 75 / 82 40% 6 29.04.2027 -
Daniil Agureev Amkar Ativo 91 / 79 40% 3 29.04.2027 -
Yegor Ponomarev Tver Ativo 77 / 82 40% 3 27.04.2027 -
Alexey Kashtanov Torpedo Moscow Ativo 103 / 100 40% 1 27.04.2027 -
Nikita Pogrebnev Ryazan Ativo 82 / 68 40% 3 25.04.2027 -
Yegor Pankov Luki-Energiya Ativo 81 / 78 40% 2 25.04.2027 -
Nikita Kireev Dinamo Vologda Ativo 76 / 74 40% 2 24.04.2027 -
Danil Akhatov Ufa Ativo 91 / 99 40% 2 24.04.2027 -
Amur Kalmykov Spartak Kostroma Ativo 116 / 111 40% 6 23.04.2027 -
Zoumana Simpara Djoliba Ativo 100 / 98 40% 1 23.04.2027 -
Daniil Arsentjev Orel Ativo 73 / 84 40% 1 22.04.2027 -
Akintunde Azeez US Bougouni Ativo 79 / 99 40% 1 22.04.2027 -
Timur Zhamaletdinov Arsenal Tula Ativo 100 / 82 40% 1 19.04.2027 -
Paolo Yrizar Chernomorets Ativo 94 / 94 40% 1 19.04.2027 -
Evgeny Voronin Volga Ativo 80 / 90 40% 6 18.04.2027 -
Kirill Mogel Dinamo Barnaul Ativo 69 / 61 40% 4 18.04.2027 -
Rashid Magomedov Neftekhimik Ativo 101 / 100 40% 3 13.04.2027 -
Daniil Kondrakov KDV Tomsk Ativo 100 / 85 40% 1 13.04.2027 -
Robert Murić Floriana Ativo 118 / 98 40% 2 12.04.2027 -
Surkhaikhan Abdullaev KAMAZ Ativo 85 / 88 40% 1 11.04.2027 -
Andrey Okladnikov Yenisey Ativo 81 / 82 40% 3 10.04.2027 -
Vladislav Yakovlev Volga Ativo 86 / 100 40% 2 10.04.2027 -
Nikolay Maximov Krylya Sovetov Ativo 63 / 65 40% 3 05.04.2027 -
Kamran Aliev SKA Khabarovsk Ativo 106 / 99 40% 2 05.04.2027 -
Timur Melekestsev Arsenal Tula Ativo 95 / 93 40% 3 03.04.2027 -
Malick Traoré Onze Createurs Ativo 108 / 113 40% 1 02.04.2027 -
Sergey Gribov Dinamo Bryansk Ativo 85 / 97 40% 3 30.03.2027 -
Gevork Sarkisyan Saturn Ativo 87 / 79 40% 1 30.03.2027 -
Yordy Reyna Rodina Ativo 106 / 120 40% 4 23.03.2027 -
Nikita Simdyankin KDV Tomsk Ativo 91 / 81 40% 2 23.03.2027 -
Rizvan Umarov Dinamo St Petersburg Ativo 79 / 70 40% 3 22.03.2027 -
Sergey Gaiduk Salyut Ativo 86 / 70 40% 3 19.03.2027 -
Denis Rubanov Dinamo Stavropol Ativo 85 / 95 40% 4 18.03.2027 -
Stanislav Biblyk Chaika Ativo 94 / 104 40% 4 15.03.2027 -
Nikos Karelis Ativo 92 / 78 40% 2 15.03.2027 -
Maxim Sergeev Spartak Tambov Ativo 75 / 87 40% 2 11.03.2027 -
Merabi Uridia Fakel Ativo 96 / 91 40% 2 10.03.2027 -
Artem Stepanovich Sevastopol Ativo 85 / 87 40% 2 10.03.2027 -
Georgy Gongadze Ufa Ativo 103 / 90 40% 3 08.03.2027 -
Dmitry Kuptsov Spartak Tambov Ativo 87 / 82 40% 1 07.03.2027 -
Serder Serderov Dinamo Makhachkala Ativo 105 / 100 40% 1 21.02.2027 -
Danil Karpov KAMAZ Ativo 86 / 79 40% 1 18.02.2027 -
Vladislav Agalakov Metallurg Ativo 75 / 68 40% 1 16.02.2027 -
Stanislav Bukatov Salyut Ativo 65 / 76 40% 1 13.02.2027 -
Patrick Schmidt Tarxien Rainbows Ativo 89 / 118 40% 1 11.02.2027 -
Jacobo Alcalde SKA Khabarovsk Ativo 95 / 82 40% 4 04.02.2027 -
Oscar Pihela Flora Ativo 82 / 87 55% 1 07.01.2027 -
Johannes Lillemets Nomme Kalju Ativo 67 / 75 55% 1 01.01.2027 -
Tobías Dieni Ryazan Ativo 68 / 67 40% 1 28.12.2026 -
Alexey Baev Dinamo St Petersburg Ativo 74 / 77 40% 2 27.12.2026 -
Omar Popov Dinamo St Petersburg Ativo 85 / 81 40% 3 24.12.2026 -
Maxim Lauk Dinamo Kirov Ativo 88 / 82 40% 1 22.12.2026 -
Bilal Bilalov Dinamo Kirov Ativo 75 / 92 40% 3 18.12.2026 -
Ilja Molteninov Kuban Ativo 90 / 94 40% 1 18.12.2026 -
Mikhail Gainov Dinamo Stavropol Ativo 76 / 84 40% 1 16.12.2026 -
Razhab Magomedov Dinamo Makhachkala Ativo 109 / 118 40% 1 13.12.2026 -
Uroš Đuranović Sliema Wanderers Ativo 103 / 116 40% 1 13.12.2026 -
Anton Betyuzhnov Dinamo Vologda Ativo 77 / 82 40% 1 12.12.2026 -
Khyzyr Appaev Ativo 85 / 86 40% 1 12.12.2026 -
Alexandr Komissarov Torpedo Vladimir Ativo 72 / 71 40% 3 11.12.2026 -
Maxim Chikanchi Sibir Ativo 95 / 89 40% 1 09.12.2026 -
Tamaz Topuria Mashuk Ativo 85 / 71 40% 1 06.12.2026 -
Ivan Matyushenko Alania Ativo 84 / 70 40% 1 04.12.2026 -
Artem Ntumba Rubin Yalta Ativo 79 / 75 40% 1 04.12.2026 -
Dmitry Lesnikov Volgar Ativo 95 / 96 40% 1 30.11.2026 -
Ilja Stefanovich Leningradets Ativo 87 / 103 40% 2 25.11.2026 -
Vyacheslav Krotov Volgar Ativo 99 / 81 40% 1 25.11.2026 -
Sam Nombe Milton Keynes Dons Ativo 108 / 114 40% 1 23.11.2026 -
Matvey Martinkevich Dinamo Kirov Ativo 79 / 70 40% 3 19.11.2026 -
Maxim Dmitriev Tyumen Ativo 92 / 89 40% 1 16.11.2026 -
Alexey Skvortsov Ativo 85 / 74 40% 1 15.11.2026 -
Asker Delok Druzhba Ativo 75 / 69 40% 2 09.11.2026 -
Vladislav Morozov Volgar Ativo 88 / 80 40% 2 07.11.2026 -
Andrey Domotsev Mashuk Ativo 75 / 85 40% 2 07.11.2026 -
Abu-Said Eldarushev Rotor Ativo 109 / 85 40% 1 31.10.2026 -
Ruslan Bolov Murom Ativo 98 / 76 40% 1 26.10.2026 -
Ivan Selemenev Mashuk Ativo 70 / 76 40% 1 24.10.2026 -
Yegor Kortsov Dinamo Brest Ativo 120 / 114 40% 1 23.10.2026 -
Zakhar Tarasenko Veles Ativo 78 / 92 40% 1 23.10.2026 -
Steven Alfred Torpedo-BelAZ Ativo 111 / 102 40% 1 22.10.2026 -
Vladislav Fedosov Slutsk Ativo 91 / 78 40% 1 20.10.2026 -
Ismail Dibirov Dinamo Kirov Ativo 86 / 90 40% 1 13.10.2026 -
Georgy Melkadze Akhmat Grozny Ativo 126 / 104 40% 1 13.10.2026 -
Roman Yanushkovskiy Irtysh Ativo 76 / 94 40% 1 10.10.2026 -
Mikhail Ageev Kuban Ativo 93 / 74 40% 1 10.10.2026 -
Maximiliano Gómez Nacional Ativo 120 / 126 40% 1 07.10.2026 -
Valeriy Gorbachik Arsenal Dzerzhinsk Ativo 96 / 94 40% 1 06.10.2026 -
Denis Laptev Gomel Ativo 87 / 78 40% 1 05.10.2026 -
Ken Zenjov Sillamae Kalev Ativo 82 / 75 51% 1 17.08.2026 -